Time;durP1;ratioP1;P1;durP2;ratioP2;P2;SDS_P1;SDS_P2;PMS_P1;PMS_P2;Temp;Humidity;BMP_temperature;BMP_pressure;BME280_temperature;BME280_humidity;BME280_pressure;Samples;Min_cycle;Max_cycle;Signal;HPM_P1;HPM_P2
2023/08/05 00:01:32;;;;;;;10.68;4.35;;;;;;;20.48;75.98;98919.13;7747927;32;37755;-79
2023/08/05 00:05:48;;;;;;;11.20;3.55;;;;;;;20.88;73.92;98890.38;7765444;32;39389;-79
2023/08/05 00:10:05;;;;;;;6.50;3.28;;;;;;;20.93;73.76;98935.19;7765552;32;40927;-78
2023/08/05 00:14:21;;;;;;;8.18;3.53;;;;;;;21.14;72.85;98937.62;7765371;32;37918;-79
2023/08/05 00:18:38;;;;;;;5.82;3.10;;;;;;;20.61;75.16;98965.72;7765402;32;37187;-79
2023/08/05 00:22:54;;;;;;;7.70;3.40;;;;;;;20.31;77.21;98978.41;7765454;32;39353;-79
2023/08/05 00:27:10;;;;;;;6.87;3.42;;;;;;;19.65;80.83;99024.84;7765316;32;40772;-78
2023/08/05 00:31:26;;;;;;;7.47;3.35;;;;;;;19.64;81.86;99028.75;7765200;32;37915;-79
2023/08/05 00:35:43;;;;;;;7.95;3.30;;;;;;;20.32;77.90;98982.78;7741759;32;37735;-79
2023/08/05 00:39:59;;;;;;;7.65;3.72;;;;;;;20.60;76.74;98958.56;7737964;32;39974;-79
2023/08/05 00:44:16;;;;;;;7.82;3.33;;;;;;;20.76;76.17;98943.91;7737950;32;40218;-79
2023/08/05 00:48:32;;;;;;;7.50;3.17;;;;;;;20.75;76.05;98925.72;7737977;32;37998;-79
2023/08/05 00:52:48;;;;;;;6.97;2.90;;;;;;;21.08;74.34;98928.00;7738064;32;37989;-79
2023/08/05 00:57:05;;;;;;;6.37;2.65;;;;;;;21.33;73.27;98895.25;7736833;32;39390;-80
2023/08/05 01:01:21;;;;;;;7.30;2.78;;;;;;;21.43;72.61;98832.88;7747559;32;39905;-81
2023/08/05 01:05:39;;;;;;;11.68;3.20;;;;;;;21.23;73.25;98764.78;7764996;32;37971;-79
2023/08/05 01:09:55;;;;;;;6.97;3.20;;;;;;;21.11;73.41;98749.13;7763578;32;37001;-78
2023/08/05 01:14:11;;;;;;;8.15;2.75;;;;;;;21.26;72.89;98739.91;7763518;32;39038;-79
2023/08/05 01:18:29;;;;;;;6.80;3.10;;;;;;;21.14;72.56;98737.31;7764544;32;40104;-79
2023/08/05 01:22:49;;;;;;;4.57;2.45;;;;;;;20.96;73.30;98714.81;7764475;32;37633;-79
2023/08/05 01:27:07;;;;;;;5.43;2.90;;;;;;;21.02;73.21;98666.25;7764448;32;37878;-79
2023/08/05 01:31:24;;;;;;;7.20;2.75;;;;;;;21.35;72.45;98620.44;7764321;32;39315;-79
2023/08/05 01:35:46;;;;;;;6.00;2.85;;;;;;;21.24;72.33;98652.75;7739549;32;41424;-79
2023/08/05 01:40:05;;;;;;;6.20;2.90;;;;;;;21.01;73.38;98662.69;7736054;32;37694;-79
2023/08/05 01:44:22;;;;;;;6.12;3.12;;;;;;;20.49;76.56;98650.22;7736999;32;38333;-79
2023/08/05 01:48:38;;;;;;;6.93;3.58;;;;;;;20.81;75.32;98630.66;7737437;32;39943;-80
2023/08/05 01:52:55;;;;;;;6.07;3.53;;;;;;;20.61;76.63;98655.59;7740904;32;39963;-79
2023/08/05 01:57:11;;;;;;;9.00;3.97;;;;;;;20.73;76.33;98670.47;7740863;32;38772;-80
2023/08/05 02:01:46;;;;;;;7.05;3.95;;;;;;;21.14;75.02;98687.44;7740159;32;36794;-79
2023/08/05 02:06:02;;;;;;;10.52;4.20;;;;;;;21.33;74.47;98678.25;7740176;32;39408;-79
2023/08/05 02:10:18;;;;;;;7.03;3.87;;;;;;;21.43;73.98;98676.81;7748920;32;39850;-79
2023/08/05 02:14:34;;;;;;;9.82;5.45;;;;;;;21.77;72.82;98613.97;7766884;32;37820;-80
2023/08/05 02:18:51;;;;;;;8.63;4.62;;;;;;;21.50;74.23;98582.69;7766815;32;38536;-79
2023/08/05 02:23:08;;;;;;;10.45;4.47;;;;;;;21.67;73.85;98620.97;7765691;32;39346;-78
2023/08/05 02:27:24;;;;;;;6.15;3.83;;;;;;;21.44;74.50;98628.50;7766769;32;40773;-80
2023/08/05 02:31:40;;;;;;;7.47;3.65;;;;;;;21.61;73.52;98616.94;7766686;32;37922;-80
2023/08/05 02:36:00;;;;;;;6.72;3.80;;;;;;;21.71;72.78;98615.47;7766704;32;37882;-80
2023/08/05 02:40:16;;;;;;;7.47;3.60;;;;;;;21.70;72.57;98641.63;7766575;32;39412;-80
2023/08/05 02:44:33;;;;;;;5.87;3.58;;;;;;;21.86;71.77;98625.56;7766479;32;39994;-80
2023/08/05 02:48:49;;;;;;;6.40;3.83;;;;;;;21.78;71.85;98590.59;7766498;32;37642;-80
2023/08/05 02:53:05;;;;;;;6.15;3.95;;;;;;;21.91;71.26;98588.41;7751804;32;36750;-80
2023/08/05 02:57:21;;;;;;;7.28;4.10;;;;;;;21.71;71.75;98566.38;7739421;32;39376;-80
2023/08/05 03:01:37;;;;;;;6.50;3.60;;;;;;;21.79;71.62;98574.78;7739191;32;39959;-79
2023/08/05 03:05:54;;;;;;;11.57;4.75;;;;;;;21.94;71.17;98604.28;7739243;32;37941;-79
2023/08/05 03:10:10;;;;;;;10.13;4.25;;;;;;;21.81;71.80;98625.91;7739284;32;37833;-79
2023/08/05 03:14:26;;;;;;;11.05;3.78;;;;;;;21.82;72.18;98635.03;7739160;32;40027;-79
2023/08/05 03:18:43;;;;;;;8.05;4.22;;;;;;;22.12;70.56;98608.06;7739022;32;39953;-79
2023/08/05 03:22:59;;;;;;;9.93;4.53;;;;;;;21.89;71.63;98662.88;7739030;32;38156;-80
2023/08/05 03:27:15;;;;;;;7.45;3.85;;;;;;;21.67;72.74;98692.28;7739175;32;37582;-80
2023/08/05 03:31:31;;;;;;;9.50;4.05;;;;;;;21.73;72.59;98702.69;7739770;32;39333;-80
2023/08/05 03:47:56;;;;;;;8.23;4.82;;;;;;;23.05;69.08;98746.41;7808098;32;161465;-79
2023/08/05 03:52:13;;;;;;;7.72;4.68;;;;;;;23.05;69.08;98746.41;7784190;32;40615;-79
2023/08/05 03:56:30;;;;;;;10.45;4.95;;;;;;;22.48;70.50;98786.22;7785282;32;37683;-80
2023/08/05 04:00:46;;;;;;;8.93;4.72;;;;;;;22.46;70.90;98737.81;7785291;32;37065;-79
2023/08/05 04:05:04;;;;;;;11.65;5.10;;;;;;;22.56;70.26;98676.06;7785333;32;39083;-80
2023/08/05 04:09:21;;;;;;;8.25;4.87;;;;;;;22.37;71.07;98662.31;7785129;32;40046;-80
2023/08/05 04:13:39;;;;;;;10.13;5.07;;;;;;;22.36;70.84;98697.63;7784076;32;37552;-80
2023/08/05 04:17:59;;;;;;;8.93;5.28;;;;;;;22.25;70.92;98707.75;7785028;32;37727;-79
2023/08/05 04:22:20;;;;;;;8.65;4.20;;;;;;;22.34;70.45;98713.06;7785071;32;39155;-80
2023/08/05 04:26:36;;;;;;;7.50;3.47;;;;;;;22.39;70.40;98699.66;7785005;32;39902;-79
2023/08/05 04:30:53;;;;;;;5.82;3.25;;;;;;;22.24;70.73;98697.84;7784733;32;38675;-79
2023/08/05 04:35:10;;;;;;;6.68;3.35;;;;;;;22.53;69.75;98692.66;7784702;32;36866;-79
2023/08/05 04:39:26;;;;;;;5.45;3.20;;;;;;;22.49;70.05;98696.19;7784679;32;39833;-80
2023/08/05 04:43:42;;;;;;;5.10;3.00;;;;;;;21.98;71.48;98682.03;7784672;32;40839;-79
2023/08/05 04:47:58;;;;;;;6.10;2.83;;;;;;;22.35;70.27;98661.91;7770568;32;37960;-79
2023/08/05 04:52:15;;;;;;;8.73;3.20;;;;;;;22.31;70.70;98665.44;7766526;32;37100;-79
2023/08/05 04:56:31;;;;;;;5.03;2.83;;;;;;;22.56;70.10;98666.91;7763185;32;39921;-79
2023/08/05 05:00:47;;;;;;;6.18;3.00;;;;;;;22.62;69.74;98657.84;7739517;32;39818;-80
2023/08/05 05:05:04;;;;;;;4.87;3.08;;;;;;;22.39;69.79;98660.78;7739315;32;37948;-79
2023/08/05 05:09:21;;;;;;;6.35;3.00;;;;;;;22.61;69.57;98658.22;7739262;32;37008;-80
2023/08/05 05:13:38;;;;;;;6.32;3.37;;;;;;;22.60;69.41;98664.97;7738019;32;39039;-79
2023/08/05 05:17:54;;;;;;;4.82;3.22;;;;;;;22.55;70.20;98656.97;7739131;32;40044;-79
2023/08/05 05:22:15;;;;;;;7.03;3.00;;;;;;;22.63;70.28;98634.47;7739051;32;38889;-79
2023/08/05 05:26:31;;;;;;;7.75;3.10;;;;;;;22.69;70.19;98641.25;7739192;32;36749;-79
2023/08/05 05:30:48;;;;;;;6.87;3.40;;;;;;;22.80;70.26;98638.59;7739090;32;39238;-80
2023/08/05 05:35:04;;;;;;;6.40;3.35;;;;;;;22.99;70.45;98632.03;7738994;32;40925;-80
2023/08/05 05:39:21;;;;;;;5.53;3.22;;;;;;;23.13;70.66;98634.16;7738810;32;38734;-80
2023/08/05 05:43:38;;;;;;;4.62;3.03;;;;;;;23.15;70.58;98612.34;7738981;32;37678;-80
2023/08/05 05:47:54;;;;;;;4.80;3.08;;;;;;;23.58;69.11;98604.28;7739792;32;39240;-79
2023/08/05 05:52:13;;;;;;;4.97;3.10;;;;;;;23.67;69.01;98595.59;7739134;32;40013;-78
2023/08/05 05:56:30;;;;;;;5.15;2.78;;;;;;;23.47;69.83;98595.06;7761851;32;38142;-81
2023/08/05 06:00:47;;;;;;;4.32;2.58;;;;;;;23.76;69.48;98598.81;7737941;32;37715;-80
2023/08/05 06:05:03;;;;;;;4.50;3.12;;;;;;;23.79;67.95;98614.75;7739017;32;39132;-83
2023/08/05 06:09:20;;;;;;;5.80;3.17;;;;;;;23.52;69.15;98624.50;7743952;32;40592;-83
2023/08/05 06:13:36;;;;;;;6.05;3.33;;;;;;;23.73;69.88;98635.78;7765309;32;37858;-83
2023/08/05 06:17:53;;;;;;;4.82;3.12;;;;;;;23.47;69.84;98634.00;7764681;32;36986;-83
2023/08/05 06:22:09;;;;;;;5.03;2.70;;;;;;;23.99;68.58;98634.75;7764268;32;39853;-84
2023/08/05 06:26:26;;;;;;;6.65;2.92;;;;;;;24.56;66.52;98613.91;7764237;32;39760;-84
2023/08/05 06:30:43;;;;;;;8.13;3.28;;;;;;;24.36;67.21;98605.84;7765255;32;37886;-84
2023/08/05 06:35:00;;;;;;;5.57;2.97;;;;;;;24.49;67.15;98591.56;7765289;32;37028;-83
2023/08/05 06:39:16;;;;;;;6.22;2.90;;;;;;;24.82;65.44;98584.88;7765265;32;39802;-78
2023/08/05 06:43:32;;;;;;;7.40;2.87;;;;;;;24.62;65.91;98598.37;7765103;32;39918;-84
2023/08/05 06:47:48;;;;;;;6.53;2.65;;;;;;;25.04;64.57;98602.41;7764907;32;38755;-73
2023/08/05 06:52:06;;;;;;;3.97;2.58;;;;;;;25.17;63.18;98602.00;7765094;32;36987;-75
2023/08/05 06:56:22;;;;;;;5.72;2.55;;;;;;;25.14;62.17;98603.59;7765032;32;40020;-75
2023/08/05 07:00:38;;;;;;;5.43;2.50;;;;;;;24.71;63.89;98609.94;7765082;32;39859;-72
2023/08/05 07:04:54;;;;;;;6.05;3.10;;;;;;;25.54;62.82;98609.16;7764865;32;37897;-81
2023/08/05 07:09:11;;;;;;;6.28;3.30;;;;;;;25.08;63.98;98613.56;7763220;32;36849;-81
2023/08/05 07:13:28;;;;;;;10.15;2.83;;;;;;;25.49;63.71;98618.72;7764792;32;39767;-81
2023/08/05 07:17:44;;;;;;;5.87;2.45;;;;;;;24.84;64.61;98623.50;7764358;32;40317;-82
2023/08/05 07:22:00;;;;;;;6.05;2.72;;;;;;;25.84;61.45;98617.06;7764318;32;38711;-82
2023/08/05 07:26:17;;;;;;;2.85;2.20;;;;;;;26.07;61.37;98613.81;7764541;32;37183;-81
2023/08/05 07:30:33;;;;;;;5.60;2.90;;;;;;;25.79;62.38;98621.06;7764381;32;39893;-81
2023/08/05 07:34:54;;;;;;;4.07;2.53;;;;;;;26.16;60.09;98635.72;7764152;32;40566;-80
2023/08/05 07:39:10;;;;;;;4.62;2.90;;;;;;;26.74;59.53;98633.47;7764353;32;37847;-85
2023/08/05 07:43:29;;;;;;;4.97;2.92;;;;;;;26.93;59.46;98632.94;7764037;32;37781;-84
2023/08/05 07:47:46;;;;;;;4.32;2.80;;;;;;;26.97;58.89;98630.09;7763910;32;39000;-84
2023/08/05 07:52:04;;;;;;;5.43;2.80;;;;;;;26.87;57.88;98637.37;7763687;32;39836;-84
2023/08/05 07:56:20;;;;;;;4.28;3.00;;;;;;;26.63;57.81;98627.13;7763465;32;37920;-85
2023/08/05 08:00:36;;;;;;;7.87;3.00;;;;;;;26.43;58.35;98630.41;7763555;32;37643;-84
2023/08/05 08:04:58;;;;;;;5.62;3.37;;;;;;;26.56;59.46;98623.16;7763508;32;39300;-85
2023/08/05 08:09:14;;;;;;;5.75;3.45;;;;;;;26.74;59.58;98620.28;7763413;32;40156;-82
2023/08/05 08:13:30;;;;;;;8.48;3.40;;;;;;;26.48;60.46;98618.81;7763402;32;37992;-83
2023/08/05 08:17:46;;;;;;;4.12;3.10;;;;;;;26.73;59.38;98626.28;7763016;32;36886;-82
2023/08/05 08:22:03;;;;;;;5.68;2.90;;;;;;;26.75;59.86;98635.03;7763576;32;39220;-82
2023/08/05 08:26:19;;;;;;;4.37;2.90;;;;;;;26.80;59.34;98631.81;7766793;32;41634;-82
2023/08/05 08:30:35;;;;;;;6.32;3.35;;;;;;;26.51;58.83;98629.19;7766668;32;38684;-82
2023/08/05 08:34:51;;;;;;;4.10;3.08;;;;;;;26.40;59.53;98620.06;7765338;32;36654;-82
2023/08/05 08:39:08;;;;;;;4.90;2.95;;;;;;;26.54;58.84;98619.97;7766703;32;39729;-82
2023/08/05 08:43:24;;;;;;;3.80;2.90;;;;;;;26.49;59.76;98628.81;7766490;32;39983;-81
2023/08/05 08:47:41;;;;;;;5.75;3.15;;;;;;;26.56;59.16;98627.94;7766476;32;37963;-81
2023/08/05 08:51:58;;;;;;;4.43;2.60;;;;;;;26.75;58.41;98619.09;7765241;32;36630;-81
2023/08/05 08:56:14;;;;;;;3.75;2.80;;;;;;;26.76;57.34;98633.84;7766215;32;39923;-81
2023/08/05 09:00:32;;;;;;;3.83;2.85;;;;;;;26.50;58.43;98660.34;7766350;32;40733;-82
2023/08/05 09:04:51;;;;;;;3.78;2.60;;;;;;;26.55;57.66;98671.88;7765197;32;37957;-84
2023/08/05 09:09:07;;;;;;;3.75;2.28;;;;;;;26.43;57.09;98659.16;7766389;32;35913;-84
2023/08/05 09:13:23;;;;;;;4.37;2.75;;;;;;;26.75;56.80;98668.59;7766394;32;38901;-84
2023/08/05 09:17:40;;;;;;;6.28;3.00;;;;;;;27.01;56.10;98663.62;7766132;32;40037;-83
2023/08/05 09:21:59;;;;;;;3.72;2.95;;;;;;;26.85;57.76;98664.16;7764977;32;37879;-84
2023/08/05 09:26:28;;;;;;;3.95;2.78;;;;;;;26.95;55.97;98657.69;7766216;32;37741;-84
2023/08/05 09:30:44;;;;;;;6.90;3.28;;;;;;;27.54;55.93;98657.66;7765120;32;39119;-84
2023/08/05 09:35:00;;;;;;;9.27;3.25;;;;;;;27.70;56.80;98648.69;7765826;32;39872;-85
2023/08/05 09:39:16;;;;;;;5.95;3.20;;;;;;;27.57;56.06;98652.44;7765921;32;38040;-85
2023/08/05 09:43:45;;;;;;;4.82;3.22;;;;;;;27.61;55.93;98628.78;7765925;32;37026;-84
2023/08/05 09:48:10;;;;;;;4.78;2.85;;;;;;;27.48;56.32;98631.31;7765852;32;38913;-84
2023/08/05 09:52:28;;;;;;;7.28;3.20;;;;;;;27.71;56.80;98636.25;7765999;32;40093;-84
2023/08/05 09:56:46;;;;;;;5.47;2.65;;;;;;;27.59;56.70;98636.00;7765648;32;37290;-82
2023/08/05 10:01:07;;;;;;;5.53;2.85;;;;;;;27.68;56.38;98641.91;7765561;32;36767;-72
2023/08/05 10:05:26;;;;;;;5.20;2.90;;;;;;;27.86;56.26;98644.53;7765595;32;39262;-74
2023/08/05 10:09:42;;;;;;;7.87;2.85;;;;;;;27.73;56.77;98639.47;7765653;32;38839;-84
2023/08/05 10:14:01;;;;;;;4.65;2.80;;;;;;;27.94;56.21;98632.06;7764224;32;38721;-84
2023/08/05 10:18:18;;;;;;;5.30;2.83;;;;;;;28.16;55.74;98634.59;7765465;32;37419;-84
2023/08/05 10:22:37;;;;;;;5.12;2.85;;;;;;;28.17;55.17;98639.00;7765388;32;39108;-82
2023/08/05 10:26:56;;;;;;;6.80;3.12;;;;;;;28.13;55.38;98649.44;7765344;32;40896;-83
2023/08/05 10:31:28;;;;;;;5.62;3.08;;;;;;;27.96;55.91;98652.06;7765269;32;36793;-81
2023/08/05 10:35:45;;;;;;;7.57;3.30;;;;;;;27.96;55.61;98638.06;7765166;32;37017;-82
2023/08/05 10:40:03;;;;;;;7.07;3.62;;;;;;;27.68;56.25;98644.69;7765227;32;39031;-81
2023/08/05 10:44:20;;;;;;;4.68;3.10;;;;;;;27.80;55.93;98640.59;7764348;32;41506;-81
2023/08/05 10:48:44;;;;;;;9.90;3.72;;;;;;;27.21;57.22;98650.69;7763821;32;37884;-82
2023/08/05 10:53:05;;;;;;;6.47;3.40;;;;;;;27.20;57.81;98643.53;7765104;32;37632;-82
2023/08/05 10:57:39;;;;;;;7.97;3.55;;;;;;;27.08;58.48;98635.59;7764958;32;40006;-82
2023/08/05 11:01:56;;;;;;;8.30;3.22;;;;;;;27.18;58.58;98640.31;7764914;32;39827;-81
2023/08/05 11:06:21;;;;;;;5.28;3.40;;;;;;;27.37;57.82;98632.62;7763663;32;37949;-82
2023/08/05 11:10:38;;;;;;;7.30;3.42;;;;;;;27.44;58.17;98640.94;7764937;32;36862;-82
2023/08/05 11:14:55;;;;;;;8.15;3.83;;;;;;;27.65;57.64;98629.53;7763370;32;40015;-72
2023/08/05 11:19:11;;;;;;;5.22;3.20;;;;;;;27.91;57.29;98627.28;7764368;32;40054;-73
2023/08/05 11:23:28;;;;;;;5.57;3.75;;;;;;;28.21;55.89;98614.53;7764341;32;38476;-81
2023/08/05 11:27:49;;;;;;;5.93;3.60;;;;;;;28.69;56.16;98599.50;7764388;32;37597;-81
2023/08/05 11:32:06;;;;;;;6.50;4.10;;;;;;;29.16;53.53;98599.56;7763250;32;38988;-81
2023/08/05 11:36:26;;;;;;;6.90;3.97;;;;;;;29.42;52.68;98611.13;7764248;32;39954;-82
2023/08/05 11:40:57;;;;;;;12.90;4.70;;;;;;;29.53;52.38;98628.59;7762704;32;37976;-81
2023/08/05 11:45:14;;;;;;;11.15;4.68;;;;;;;29.43;50.11;98623.97;7763991;32;37858;-84
2023/08/05 11:49:31;;;;;;;9.15;3.80;;;;;;;29.08;52.46;98637.34;7762611;32;39424;-82
2023/08/05 11:53:50;;;;;;;5.65;3.60;;;;;;;28.54;52.63;98631.72;7763785;32;40933;-82
2023/08/05 11:58:07;;;;;;;7.80;4.12;;;;;;;28.64;54.30;98623.19;7765885;32;38057;-82
2023/08/05 12:02:24;;;;;;;7.37;4.07;;;;;;;28.88;52.83;98622.44;7767090;32;37167;-82
2023/08/05 12:06:45;;;;;;;10.07;5.07;;;;;;;29.02;54.13;98613.78;7767173;32;39161;-82
2023/08/05 12:11:05;;;;;;;7.93;5.07;;;;;;;29.27;53.57;98615.41;7765959;32;39606;-82
2023/08/05 12:15:27;;;;;;;9.18;5.20;;;;;;;28.73;54.03;98611.44;7754290;32;38738;-82
2023/08/05 12:19:45;;;;;;;7.22;4.55;;;;;;;29.30;54.02;98598.50;7758107;32;36937;-83
2023/08/05 12:24:01;;;;;;;7.87;4.05;;;;;;;29.85;52.77;98599.13;7765212;32;38858;-83
2023/08/05 12:28:18;;;;;;;9.38;4.85;;;;;;;30.40;52.72;98605.25;7762804;32;39734;-83
2023/08/05 12:32:35;;;;;;;9.00;5.37;;;;;;;30.91;49.54;98585.22;7766027;32;38104;-86
2023/08/05 12:36:51;;;;;;;8.50;5.37;;;;;;;31.51;48.56;98589.75;7766048;32;37682;-83
2023/08/05 12:41:07;;;;;;;8.88;5.43;;;;;;;31.81;49.05;98588.53;7765939;32;39862;-81
2023/08/05 12:45:23;;;;;;;8.23;4.55;;;;;;;31.60;48.73;98582.28;7765622;32;39620;-82
2023/08/05 12:49:42;;;;;;;7.57;4.93;;;;;;;31.09;49.16;98576.34;7765756;32;37985;-82
2023/08/05 12:53:58;;;;;;;7.53;4.37;;;;;;;30.68;51.00;98581.31;7760626;32;36778;-81
2023/08/05 12:58:14;;;;;;;10.30;4.62;;;;;;;30.39;49.52;98581.19;7738934;32;39264;-83
2023/08/05 13:02:31;;;;;;;7.65;4.72;;;;;;;29.85;51.24;98576.66;7739237;32;39985;-83
2023/08/05 13:06:47;;;;;;;8.98;4.97;;;;;;;29.72;51.62;98576.50;7738797;32;38573;-83
2023/08/05 13:11:04;;;;;;;8.75;5.43;;;;;;;29.29;53.23;98582.91;7739218;32;37584;-84
2023/08/05 13:15:22;;;;;;;9.00;5.57;;;;;;;28.95;53.85;98577.44;7739784;32;40036;-83
2023/08/05 13:19:39;;;;;;;7.90;5.65;;;;;;;29.43;53.27;98567.03;7743424;32;39872;-84
2023/08/05 13:23:56;;;;;;;9.38;5.93;;;;;;;28.81;54.05;98558.84;7765968;32;38759;-84
2023/08/05 13:28:12;;;;;;;9.70;6.47;;;;;;;28.61;55.94;98542.75;7766094;32;36984;-85
2023/08/05 13:32:28;;;;;;;12.77;6.82;;;;;;;28.69;55.05;98542.63;7738173;32;39138;-82
2023/08/05 13:36:45;;;;;;;10.23;7.20;;;;;;;28.61;55.20;98539.94;7738363;32;39961;-82
2023/08/05 13:41:01;;;;;;;11.43;7.97;;;;;;;28.60;55.34;98523.53;7738092;32;38368;-84
2023/08/05 13:45:17;;;;;;;12.45;8.57;;;;;;;28.57;55.37;98521.56;7738628;32;36675;-84
2023/08/05 13:49:33;;;;;;;13.98;7.57;;;;;;;28.32;56.38;98505.91;7737686;32;39744;-84
2023/08/05 13:53:50;;;;;;;9.35;6.25;;;;;;;28.65;55.90;98497.81;7738518;32;39639;-82
2023/08/05 13:58:06;;;;;;;11.45;5.80;;;;;;;28.84;56.79;98505.50;7738441;32;38726;-84
2023/08/05 14:02:22;;;;;;;9.50;5.68;;;;;;;28.58;56.29;98525.94;7738643;32;37115;-82
2023/08/05 14:06:38;;;;;;;9.50;5.62;;;;;;;28.70;56.03;98528.19;7738614;32;39316;-82
2023/08/05 14:10:55;;;;;;;10.07;5.45;;;;;;;28.38;56.77;98545.47;7738463;32;40912;-72
2023/08/05 14:15:11;;;;;;;9.98;5.93;;;;;;;28.70;56.44;98556.22;7737720;32;38670;-73
2023/08/05 14:19:28;;;;;;;9.07;5.87;;;;;;;28.11;57.08;98565.81;7736524;32;36970;-72
2023/08/05 14:23:44;;;;;;;8.65;5.97;;;;;;;28.11;57.49;98574.22;7738446;32;40127;-72
2023/08/05 14:28:01;;;;;;;12.02;6.07;;;;;;;27.40;59.02;98573.03;7737779;32;40000;-73
2023/08/05 14:32:18;;;;;;;9.80;6.07;;;;;;;27.11;59.44;98590.03;7738226;32;38003;-73
2023/08/05 14:36:35;;;;;;;9.00;5.80;;;;;;;27.09;59.34;98575.69;7738067;32;37052;-73
2023/08/05 14:40:51;;;;;;;11.00;6.45;;;;;;;27.21;58.94;98557.59;7738134;32;39262;-72
2023/08/05 14:45:07;;;;;;;13.13;6.78;;;;;;;26.81;60.02;98538.37;7737840;32;41069;-72
2023/08/05 14:49:23;;;;;;;12.52;6.95;;;;;;;26.43;60.82;98552.97;7747300;32;38453;-73
2023/08/05 14:53:40;;;;;;;12.27;6.68;;;;;;;26.20;61.51;98561.13;7754570;32;37103;-72
2023/08/05 14:57:56;;;;;;;11.40;7.47;;;;;;;26.49;60.69;98561.75;7741913;32;39292;-72
2023/08/05 15:02:14;;;;;;;12.00;8.13;;;;;;;26.33;60.74;98570.59;7738938;32;39942;-85
2023/08/05 15:06:32;;;;;;;14.75;8.13;;;;;;;25.76;62.40;98591.16;7739057;32;37795;-89
2023/08/05 15:10:59;;;;;;;13.85;8.38;;;;;;;25.54;63.44;98609.16;7738107;32;36453;-86
2023/08/05 15:15:15;;;;;;;12.30;8.82;;;;;;;25.37;63.64;98628.31;7737821;32;39139;-86
2023/08/05 15:19:31;;;;;;;14.18;9.38;;;;;;;25.42;63.62;98630.72;7738433;32;39714;-86
2023/08/05 15:23:47;;;;;;;16.40;9.75;;;;;;;25.08;64.46;98642.25;7738503;32;37713;-87
2023/08/05 15:28:04;;;;;;;13.90;10.77;;;;;;;24.92;65.18;98633.44;7737708;32;38028;-88
2023/08/05 15:32:20;;;;;;;17.17;11.02;;;;;;;24.85;65.48;98619.50;7744099;32;39220;-87
2023/08/05 15:36:36;;;;;;;16.77;11.63;;;;;;;24.42;67.45;98620.19;7763707;32;39973;-81
2023/08/05 15:40:58;;;;;;;18.02;12.00;;;;;;;24.68;66.31;98621.87;7763960;32;38237;-82
2023/08/05 15:45:15;;;;;;;19.15;13.88;;;;;;;25.08;65.16;98611.56;7763541;32;37243;-82
2023/08/05 15:49:31;;;;;;;20.15;14.77;;;;;;;24.88;65.45;98618.72;7763803;32;39146;-81
2023/08/05 15:53:48;;;;;;;29.15;16.52;;;;;;;24.64;66.40;98621.06;7763530;32;40461;-81
2023/08/05 15:58:04;;;;;;;27.23;17.95;;;;;;;24.77;65.56;98648.56;7763381;32;38806;-81
2023/08/05 16:02:20;;;;;;;26.77;18.45;;;;;;;24.69;65.57;98658.91;7763388;32;37111;-74
2023/08/05 16:06:36;;;;;;;30.35;20.37;;;;;;;24.43;66.24;98651.63;7763282;32;39425;-71
2023/08/05 16:11:12;;;;;;;31.48;21.98;;;;;;;24.00;67.54;98644.69;7762424;32;40478;-71
2023/08/05 16:15:28;;;;;;;30.00;20.35;;;;;;;23.74;68.94;98639.34;7760479;32;37940;-72
2023/08/05 16:19:45;;;;;;;31.27;23.30;;;;;;;24.03;67.84;98643.13;7760036;32;37890;-71
2023/08/05 16:24:01;;;;;;;32.72;21.67;;;;;;;23.55;68.67;98638.44;7749605;32;39973;-72
2023/08/05 16:28:18;;;;;;;36.85;24.70;;;;;;;23.71;67.48;98626.22;7758274;32;40565;-73
2023/08/05 16:32:34;;;;;;;35.67;22.75;;;;;;;23.41;68.47;98599.41;7770812;32;38956;-73
2023/08/05 16:36:50;;;;;;;33.50;23.08;;;;;;;23.36;68.63;98583.09;7789673;32;37938;-73
2023/08/05 16:41:06;;;;;;;31.25;21.55;;;;;;;23.72;67.59;98555.50;7768605;32;39193;-72
2023/08/05 16:45:23;;;;;;;31.85;21.77;;;;;;;23.92;66.90;98553.19;7752755;32;40053;-73
2023/08/05 16:49:39;;;;;;;35.35;21.87;;;;;;;23.83;67.42;98564.69;7748548;32;38094;-72
2023/08/05 16:53:55;;;;;;;30.25;21.50;;;;;;;24.12;66.36;98553.69;7758334;32;37885;-70
2023/08/05 16:58:11;;;;;;;30.65;22.45;;;;;;;24.11;66.56;98547.31;7764336;32;39039;-72
2023/08/05 17:02:28;;;;;;;34.40;23.48;;;;;;;24.05;67.00;98573.16;7756417;32;40445;-73
2023/08/05 17:06:44;;;;;;;33.30;22.60;;;;;;;24.04;67.41;98569.53;7739129;32;38078;-72
2023/08/05 17:11:02;;;;;;;48.55;24.52;;;;;;;23.99;67.46;98559.59;7739088;32;37898;-74
2023/08/05 17:15:21;;;;;;;34.28;23.98;;;;;;;23.88;68.28;98561.53;7752465;32;38945;-73
2023/08/05 17:19:38;;;;;;;35.13;22.75;;;;;;;23.73;68.46;98571.78;7764054;32;39731;-73
2023/08/05 17:23:54;;;;;;;35.47;22.37;;;;;;;23.71;68.20;98574.16;7777483;32;38561;-71
2023/08/05 17:28:10;;;;;;;39.42;23.35;;;;;;;23.55;68.60;98577.25;7765818;32;37157;-73
2023/08/05 17:32:26;;;;;;;34.30;22.52;;;;;;;23.48;69.12;98585.56;7765890;32;39298;-70
2023/08/05 17:36:43;;;;;;;30.12;20.45;;;;;;;23.65;68.44;98566.59;7765721;32;40857;-70
2023/08/05 17:40:59;;;;;;;36.15;23.17;;;;;;;23.31;69.72;98575.13;7765538;32;38147;-69
2023/08/05 17:45:17;;;;;;;34.17;22.33;;;;;;;23.06;70.73;98575.75;7765058;32;37075;-80
2023/08/05 17:49:33;;;;;;;32.35;20.65;;;;;;;23.24;69.96;98559.19;7739870;32;38556;-80
2023/08/05 17:53:49;;;;;;;31.17;20.25;;;;;;;23.13;69.63;98550.78;7753833;32;39615;-82
2023/08/05 17:58:06;;;;;;;30.37;19.58;;;;;;;23.18;69.52;98557.94;7737773;32;37772;-79
2023/08/05 18:02:24;;;;;;;29.30;18.12;;;;;;;23.30;68.71;98551.25;7738433;32;39152;-79
2023/08/05 18:06:40;;;;;;;27.37;19.02;;;;;;;23.16;69.46;98540.84;7738563;32;39261;-79
2023/08/05 18:10:56;;;;;;;28.35;18.33;;;;;;;23.02;69.92;98516.50;7763074;32;40227;-80
2023/08/05 18:15:13;;;;;;;32.17;18.77;;;;;;;23.15;69.88;98517.81;7764907;32;38077;-80
2023/08/05 18:19:29;;;;;;;29.67;17.87;;;;;;;23.09;69.95;98513.00;7744961;32;37661;-80
2023/08/05 18:23:48;;;;;;;29.33;18.67;;;;;;;23.23;69.35;98508.34;7751638;32;38984;-85
2023/08/05 18:28:04;;;;;;;28.80;19.95;;;;;;;23.17;69.55;98504.31;7749873;32;39097;-82
2023/08/05 18:32:22;;;;;;;28.73;19.35;;;;;;;23.26;69.08;98490.09;7738216;32;38185;-83
2023/08/05 18:36:40;;;;;;;29.17;17.95;;;;;;;23.42;68.43;98476.69;7738338;32;39143;-84
2023/08/05 18:40:56;;;;;;;25.52;18.23;;;;;;;23.34;68.92;98480.59;7756802;32;39253;-84
2023/08/05 18:45:12;;;;;;;31.73;19.73;;;;;;;23.28;69.00;98486.91;7765329;32;39900;-82
2023/08/05 18:49:29;;;;;;;30.48;19.62;;;;;;;23.13;69.46;98486.84;7764967;32;38782;-82
2023/08/05 18:53:45;;;;;;;32.90;19.83;;;;;;;23.04;69.56;98506.63;7761255;32;37182;-82
2023/08/05 18:58:01;;;;;;;26.58;18.02;;;;;;;23.12;69.28;98484.44;7737769;32;38944;-84
2023/08/05 19:02:17;;;;;;;25.92;17.60;;;;;;;23.01;69.94;98464.91;7736630;32;40232;-85
2023/08/05 19:06:34;;;;;;;28.02;18.17;;;;;;;23.18;69.15;98444.78;7736896;32;37709;-84
2023/08/05 19:10:50;;;;;;;29.73;18.67;;;;;;;22.93;69.94;98436.25;7737966;32;37272;-83
2023/08/05 19:15:07;;;;;;;32.30;20.10;;;;;;;23.12;69.55;98456.66;7745708;32;39175;-86
2023/08/05 19:19:23;;;;;;;26.25;18.30;;;;;;;23.13;69.49;98472.94;7737092;32;40715;-84
2023/08/05 19:23:39;;;;;;;29.25;19.33;;;;;;;22.96;70.34;98470.81;7737239;32;38690;-83
2023/08/05 19:27:56;;;;;;;28.42;19.25;;;;;;;23.09;69.92;98463.78;7737495;32;36992;-83
2023/08/05 19:32:12;;;;;;;29.12;18.05;;;;;;;22.96;70.44;98473.59;7737363;32;39239;-84
2023/08/05 19:36:28;;;;;;;33.47;19.27;;;;;;;23.13;69.73;98486.84;7736746;32;40771;-82
2023/08/05 19:40:47;;;;;;;30.62;19.15;;;;;;;23.25;69.29;98494.84;7736367;32;38686;-83
2023/08/05 19:45:03;;;;;;;31.42;20.25;;;;;;;22.37;73.17;98507.66;7735998;32;36003;-83
2023/08/05 19:49:20;;;;;;;30.15;19.33;;;;;;;22.60;72.70;98512.22;7736771;32;39359;-82
2023/08/05 19:53:36;;;;;;;32.13;19.33;;;;;;;22.32;74.34;98541.31;7736850;32;39939;-82
2023/08/05 19:57:52;;;;;;;29.87;18.87;;;;;;;22.20;74.52;98556.22;7736535;32;38146;-81
2023/08/05 20:02:09;;;;;;;30.77;18.87;;;;;;;22.42;73.97;98548.13;7736569;32;37938;-82
2023/08/05 20:06:29;;;;;;;27.27;18.08;;;;;;;22.07;75.41;98552.91;7736471;32;39942;-83
2023/08/05 20:10:52;;;;;;;21.73;14.63;;;;;;;22.10;75.03;98560.47;7736571;32;40683;-82
2023/08/05 20:15:08;;;;;;;19.45;12.80;;;;;;;22.45;72.81;98575.94;7736160;32;37989;-82